createdAt,value
2022-10-14T00:02:24.037Z,68.86
2022-10-14T00:04:51.947Z,69.03
2022-10-14T00:07:20.128Z,68.79
2022-10-14T00:09:48.473Z,68.58
2022-10-14T00:12:16.178Z,69.07
2022-10-14T00:14:43.906Z,69.03
2022-10-14T00:17:11.648Z,68.75
2022-10-14T00:19:40.741Z,69.08
2022-10-14T00:22:08.484Z,68.90
2022-10-14T00:24:36.312Z,69.21
2022-10-14T00:27:04.077Z,68.99
2022-10-14T00:29:32.022Z,68.90
2022-10-14T00:32:00.167Z,69.22
2022-10-14T00:34:30.500Z,69.67
2022-10-14T00:36:59.755Z,69.51
2022-10-14T00:39:27.510Z,69.04
2022-10-14T00:41:55.571Z,69.24
2022-10-14T00:45:00.220Z,69.31
2022-10-14T00:47:28.893Z,69.37
2022-10-14T00:49:57.664Z,69.44
2022-10-14T00:52:27.643Z,69.31
2022-10-14T00:54:59.533Z,69.33
2022-10-14T00:57:28.808Z,69.21
2022-10-14T01:00:02.370Z,69.17
2022-10-14T01:02:31.080Z,69.15
2022-10-14T01:04:59.287Z,69.40
2022-10-14T01:07:40.680Z,69.13
2022-10-14T01:10:13.931Z,69.32
2022-10-14T01:12:54.648Z,69.32
2022-10-14T01:15:35.134Z,69.29
2022-10-14T01:18:16.844Z,69.26
2022-10-14T01:21:12.733Z,69.07
2022-10-14T01:24:16.630Z,69.41
2022-10-14T01:26:57.965Z,69.02
2022-10-14T01:29:58.511Z,69.29
2022-10-14T01:32:30.906Z,69.37
2022-10-14T01:35:04.696Z,69.15
2022-10-14T01:37:37.432Z,69.31
2022-10-14T01:40:12.855Z,69.17
2022-10-14T01:42:43.228Z,68.88
2022-10-14T01:45:16.764Z,69.17
2022-10-14T01:47:49.499Z,69.04
2022-10-14T01:50:19.973Z,69.18
2022-10-14T01:52:52.699Z,69.20
2022-10-14T01:55:24.935Z,68.83
2022-10-14T01:57:56.957Z,68.89
2022-10-14T02:00:24.738Z,68.81
2022-10-14T02:02:53.802Z,69.31
2022-10-14T02:05:26.666Z,68.95
2022-10-14T02:07:59.542Z,68.94
2022-10-14T02:10:38.708Z,69.11
2022-10-14T02:13:19.397Z,68.85
2022-10-14T02:16:07.105Z,69.03
2022-10-14T02:18:43.479Z,68.78
2022-10-14T02:21:21.242Z,69.09
2022-10-14T02:23:55.271Z,68.97
2022-10-14T02:26:25.184Z,68.88
2022-10-14T02:28:56.443Z,69.03
2022-10-14T02:31:26.183Z,68.96
2022-10-14T02:34:00.172Z,69.15
2022-10-14T02:36:29.994Z,68.91
2022-10-14T02:39:00.754Z,68.96
2022-10-14T02:41:34.164Z,68.95
2022-10-14T02:44:02.188Z,69.06
2022-10-14T02:46:30.254Z,68.85
2022-10-14T02:48:59.361Z,68.94
2022-10-14T02:51:27.214Z,68.75
2022-10-14T02:53:56.244Z,68.81
2022-10-14T02:56:24.296Z,68.85
2022-10-14T02:58:52.214Z,69.07
2022-10-14T03:01:19.990Z,68.72
2022-10-14T03:03:47.948Z,68.75
2022-10-14T03:06:17.092Z,68.74
2022-10-14T03:08:44.818Z,68.95
2022-10-14T03:11:12.562Z,68.79
2022-10-14T03:13:40.307Z,68.88
2022-10-14T03:16:08.903Z,69.03
2022-10-14T03:18:36.592Z,69.04
2022-10-14T03:21:04.713Z,68.73
2022-10-14T03:23:33.887Z,69.22
2022-10-14T03:26:01.636Z,69.25
2022-10-14T03:28:29.464Z,69.40
2022-10-14T03:30:57.392Z,69.07
2022-10-14T03:33:26.318Z,68.74
2022-10-14T03:35:54.199Z,69.20
2022-10-14T03:38:21.929Z,69.08
2022-10-14T03:40:51.046Z,69.23
2022-10-14T03:43:18.819Z,69.07
2022-10-14T03:45:47.059Z,69.00
2022-10-14T03:48:14.787Z,68.82
2022-10-14T03:50:42.648Z,68.97
2022-10-14T03:53:10.520Z,68.99
2022-10-14T03:55:38.325Z,69.08
2022-10-14T03:58:07.540Z,69.39
2022-10-14T04:00:36.607Z,69.31
2022-10-14T04:03:04.494Z,69.13
2022-10-14T04:05:33.914Z,69.11
2022-10-14T04:08:02.673Z,69.35
2022-10-14T04:10:30.437Z,69.35
2022-10-14T04:12:58.262Z,69.60
2022-10-14T04:15:28.052Z,69.29
2022-10-14T04:17:57.019Z,69.37
2022-10-14T04:20:24.790Z,69.15
2022-10-14T04:22:52.513Z,69.24
2022-10-14T04:25:20.269Z,69.40
2022-10-14T04:27:48.008Z,69.54
2022-10-14T04:30:15.822Z,69.62
2022-10-14T04:32:46.327Z,69.50
2022-10-14T04:35:14.073Z,69.13
2022-10-14T04:37:41.762Z,69.18
2022-10-14T04:40:10.110Z,69.33
2022-10-14T04:42:37.877Z,69.45
2022-10-14T04:45:06.194Z,69.20
2022-10-14T04:47:34.012Z,69.48
2022-10-14T04:50:03.130Z,69.51
2022-10-14T04:52:31.076Z,69.56
2022-10-14T04:54:58.875Z,69.50
2022-10-14T04:57:26.582Z,69.03
2022-10-14T04:59:54.291Z,69.56
2022-10-14T05:02:22.231Z,69.27
2022-10-14T05:04:50.187Z,69.25
2022-10-14T05:07:19.451Z,69.28
2022-10-14T05:09:50.344Z,69.23
2022-10-14T05:12:19.137Z,69.51
2022-10-14T05:14:47.331Z,69.64
2022-10-14T05:17:15.105Z,69.61
2022-10-14T05:19:42.911Z,69.12
2022-10-14T05:22:10.632Z,69.35
2022-10-14T05:24:39.755Z,69.62
2022-10-14T05:27:07.504Z,69.46
2022-10-14T05:29:35.285Z,69.60
2022-10-14T05:32:03.099Z,69.51
2022-10-14T05:34:30.944Z,69.66
2022-10-14T05:36:58.799Z,69.40
2022-10-14T05:39:26.627Z,69.46
2022-10-14T05:41:55.842Z,69.65
2022-10-14T05:44:23.609Z,69.65
2022-10-14T05:46:51.507Z,69.34
2022-10-14T05:49:19.236Z,69.43
2022-10-14T05:51:46.996Z,69.46
2022-10-14T05:54:15.002Z,69.75
2022-10-14T05:56:42.731Z,69.42
2022-10-14T05:59:12.027Z,69.71
2022-10-14T06:01:40.975Z,69.82
2022-10-14T06:04:08.697Z,69.54
2022-10-14T06:06:36.455Z,69.50
2022-10-14T06:09:08.924Z,69.59
2022-10-14T06:11:38.940Z,69.82
2022-10-14T06:14:06.819Z,69.61
2022-10-14T06:16:35.900Z,71.54
2022-10-14T06:19:04.103Z,71.08
2022-10-14T06:21:31.984Z,70.53
2022-10-14T06:23:59.747Z,70.27
2022-10-14T06:26:27.683Z,70.41
2022-10-14T06:28:55.485Z,70.71
2022-10-14T06:31:23.248Z,70.48
2022-10-14T06:33:52.547Z,70.49
2022-10-14T06:36:20.344Z,70.40
2022-10-14T06:38:48.229Z,70.14
2022-10-14T06:41:15.982Z,69.88
2022-10-14T06:43:43.719Z,70.38
2022-10-14T06:46:11.710Z,70.55
2022-10-14T06:48:39.428Z,70.65
2022-10-14T06:51:08.645Z,70.40
2022-10-14T06:53:36.428Z,70.64
2022-10-14T06:56:06.513Z,70.04
2022-10-14T06:58:35.108Z,70.24
2022-10-14T07:01:04.102Z,70.08
2022-10-14T07:03:32.164Z,70.62
2022-10-14T07:05:59.851Z,70.24
2022-10-14T07:08:28.987Z,70.25
2022-10-14T07:10:56.707Z,70.37
2022-10-14T07:13:24.497Z,70.49
2022-10-14T07:15:52.419Z,70.72
2022-10-14T07:18:20.500Z,70.53
2022-10-14T07:20:48.256Z,70.75
2022-10-14T07:23:16.152Z,70.81
2022-10-14T07:25:46.633Z,70.63
2022-10-14T07:28:14.770Z,70.68
2022-10-14T07:30:42.850Z,70.91
2022-10-14T07:33:10.643Z,70.83
2022-10-14T07:35:39.089Z,70.67
2022-10-14T07:38:06.905Z,70.60
2022-10-14T07:40:34.809Z,70.94
2022-10-14T07:43:04.010Z,70.57
2022-10-14T07:45:35.853Z,70.75
2022-10-14T07:48:03.651Z,70.38
2022-10-14T07:50:31.391Z,70.55
2022-10-14T07:53:01.370Z,70.94
2022-10-14T07:55:29.525Z,70.95
2022-10-14T07:57:57.324Z,70.95
2022-10-14T08:00:28.842Z,70.86
2022-10-14T08:02:56.561Z,70.86
2022-10-14T08:05:39.985Z,70.53
2022-10-14T08:08:07.874Z,70.12
2022-10-14T08:10:35.699Z,69.25
2022-10-14T08:13:03.461Z,68.75
2022-10-14T08:15:38.630Z,68.01
2022-10-14T08:18:06.763Z,67.38
2022-10-14T08:20:35.074Z,67.04
2022-10-14T08:23:03.209Z,66.83
2022-10-14T08:25:31.021Z,67.06
2022-10-14T08:27:58.811Z,67.28
2022-10-14T08:30:26.610Z,67.93
2022-10-14T08:32:55.736Z,67.97
2022-10-14T08:35:23.816Z,68.31
2022-10-14T08:37:58.819Z,68.72
2022-10-14T08:40:28.545Z,68.84
2022-10-14T08:43:02.244Z,69.11
2022-10-14T08:45:35.841Z,69.15
2022-10-14T08:48:13.118Z,69.02
2022-10-14T08:50:45.739Z,68.83
2022-10-14T08:53:17.321Z,68.00
2022-10-14T08:55:47.457Z,67.38
2022-10-14T08:58:20.091Z,66.61
2022-10-14T09:00:51.569Z,65.91
2022-10-14T09:03:24.749Z,65.52
2022-10-14T09:05:58.904Z,64.86
2022-10-14T09:08:33.704Z,64.50
2022-10-14T09:11:01.742Z,64.06
2022-10-14T09:13:35.575Z,64.20
2022-10-14T09:16:07.411Z,64.70
2022-10-14T09:18:41.857Z,65.26
2022-10-14T09:21:34.092Z,65.98
2022-10-14T09:24:14.240Z,66.55
2022-10-14T09:26:43.958Z,66.85
2022-10-14T09:29:24.828Z,67.24
2022-10-14T09:31:53.371Z,67.17
2022-10-14T09:34:29.957Z,67.76
2022-10-14T09:37:02.236Z,68.01
2022-10-14T09:39:30.968Z,68.19
2022-10-14T09:42:00.369Z,68.55
2022-10-14T09:44:28.159Z,68.70
2022-10-14T09:46:59.030Z,68.57
2022-10-14T09:49:39.066Z,68.64
2022-10-14T09:52:07.378Z,68.89
2022-10-14T09:54:35.474Z,68.83
2022-10-14T09:57:08.466Z,68.95
2022-10-14T09:59:49.582Z,68.99
2022-10-14T10:02:23.908Z,68.97
2022-10-14T10:04:54.837Z,69.36
2022-10-14T10:07:31.345Z,69.43
2022-10-14T10:10:01.812Z,69.11
2022-10-14T10:12:32.077Z,68.29
2022-10-14T10:15:03.646Z,67.98
2022-10-14T10:17:32.732Z,67.29
2022-10-14T10:20:28.627Z,66.35
2022-10-14T10:22:57.301Z,66.32
2022-10-14T10:25:27.977Z,66.79
2022-10-14T10:27:59.349Z,66.81
2022-10-14T10:30:30.409Z,67.06
2022-10-14T10:33:18.110Z,67.67
2022-10-14T10:36:13.359Z,67.84
2022-10-14T10:38:53.107Z,68.36
2022-10-14T10:41:36.507Z,68.96
2022-10-14T10:44:28.662Z,68.76
2022-10-14T10:47:14.895Z,69.18
2022-10-14T10:49:58.488Z,69.01
2022-10-14T10:52:41.295Z,69.07
2022-10-14T10:55:19.818Z,69.15
2022-10-14T10:58:03.588Z,69.51
2022-10-14T11:00:39.886Z,69.53
2022-10-14T11:03:21.742Z,69.65
2022-10-14T11:06:01.841Z,69.56
2022-10-14T11:09:05.430Z,69.77
2022-10-14T11:11:56.524Z,69.78
2022-10-14T11:14:36.816Z,69.60
2022-10-14T11:17:10.800Z,70.06
2022-10-14T11:19:49.126Z,70.25
2022-10-14T11:22:34.407Z,70.46
2022-10-14T11:25:15.404Z,70.37
2022-10-14T11:27:49.534Z,70.79
2022-10-14T11:30:20.244Z,70.77
2022-10-14T11:33:10.173Z,70.58
2022-10-14T11:35:48.206Z,71.01
2022-10-14T11:38:30.100Z,70.86
2022-10-14T11:41:03.337Z,70.80
2022-10-14T11:43:42.642Z,70.41
2022-10-14T11:46:12.718Z,70.61
2022-10-14T11:48:45.268Z,70.88
2022-10-14T11:51:19.093Z,70.71
2022-10-14T11:53:55.623Z,70.64
2022-10-14T11:56:40.641Z,70.52
2022-10-14T11:59:20.596Z,70.79
2022-10-14T12:01:56.424Z,70.44
2022-10-14T12:04:29.209Z,70.41
2022-10-14T12:07:05.119Z,70.56
2022-10-14T12:09:39.459Z,72.52
2022-10-14T12:12:12.968Z,71.27
2022-10-14T12:14:44.671Z,70.81
2022-10-14T12:17:26.120Z,70.95
2022-10-14T12:19:54.252Z,70.95
2022-10-14T12:22:25.322Z,71.06
2022-10-14T12:24:55.373Z,71.13
2022-10-14T12:27:28.490Z,71.80
2022-10-14T12:29:58.768Z,71.49
2022-10-14T12:32:27.782Z,71.43
2022-10-14T12:34:57.204Z,71.30
2022-10-14T12:37:50.270Z,71.15
2022-10-14T12:40:26.340Z,71.22
2022-10-14T12:43:06.092Z,71.30
2022-10-14T12:45:36.853Z,71.09
2022-10-14T12:48:13.694Z,71.11
2022-10-14T12:50:43.487Z,71.34
2022-10-14T12:53:22.318Z,71.08
2022-10-14T12:55:54.392Z,71.48
2022-10-14T12:58:35.971Z,71.58
2022-10-14T13:01:07.784Z,71.33
2022-10-14T13:03:43.491Z,71.36
2022-10-14T13:06:38.833Z,71.62
2022-10-14T13:09:41.134Z,71.61
2022-10-14T13:12:28.037Z,71.66
2022-10-14T13:15:01.812Z,71.86
2022-10-14T13:17:31.993Z,72.05
2022-10-14T13:19:59.682Z,71.85
2022-10-14T13:22:40.057Z,71.60
2022-10-14T13:25:15.092Z,71.67
2022-10-14T13:27:55.255Z,71.75
2022-10-14T13:30:35.076Z,71.97
2022-10-14T13:33:12.562Z,71.78
2022-10-14T13:35:50.933Z,72.15
2022-10-14T13:38:21.566Z,72.08
2022-10-14T13:40:52.058Z,72.71
2022-10-14T13:43:26.759Z,72.80
2022-10-14T13:45:59.641Z,72.29
2022-10-14T13:48:32.855Z,71.75
2022-10-14T13:51:36.454Z,71.00
2022-10-14T13:54:16.327Z,70.87
2022-10-14T13:56:45.092Z,71.00
2022-10-14T13:59:43.221Z,71.29
2022-10-14T14:02:16.282Z,71.91
2022-10-14T14:04:51.976Z,71.41
2022-10-14T14:08:08.397Z,72.04
2022-10-14T14:10:12.227Z,72.11
2022-10-14T14:12:43.516Z,71.73
2022-10-14T14:15:20.414Z,71.85
2022-10-14T14:17:49.548Z,72.27
2022-10-14T14:20:21.795Z,71.76
2022-10-14T14:22:50.042Z,72.37
2022-10-14T14:25:34.063Z,72.49
2022-10-14T14:28:05.736Z,72.91
2022-10-14T14:30:36.025Z,73.08
2022-10-14T14:33:08.455Z,72.81
2022-10-14T14:35:36.241Z,72.72
2022-10-14T14:38:04.225Z,72.64
2022-10-14T14:40:32.910Z,72.99
2022-10-14T14:43:02.772Z,73.12
2022-10-14T14:45:33.221Z,72.97
2022-10-14T14:48:06.296Z,73.17
2022-10-14T14:50:36.863Z,73.28
2022-10-14T14:53:11.465Z,73.20
2022-10-14T14:55:45.557Z,73.44
2022-10-14T14:58:25.665Z,73.56
2022-10-14T15:00:55.011Z,73.61
2022-10-14T15:03:26.872Z,73.67
2022-10-14T15:05:58.996Z,73.51
2022-10-14T15:08:29.535Z,73.75
2022-10-14T15:10:58.964Z,73.29
2022-10-14T15:13:30.800Z,73.03
2022-10-14T15:15:59.188Z,73.52
2022-10-14T15:18:30.334Z,73.28
2022-10-14T15:21:15.970Z,73.21
2022-10-14T15:23:47.105Z,73.54
2022-10-14T15:26:24.302Z,73.31
2022-10-14T15:29:15.985Z,72.94
2022-10-14T15:31:46.282Z,73.45
2022-10-14T15:34:20.604Z,73.61
2022-10-14T15:36:51.984Z,73.71
2022-10-14T15:39:20.426Z,73.46
2022-10-14T15:41:48.194Z,73.62
2022-10-14T15:44:16.117Z,73.88
2022-10-14T15:47:03.443Z,74.04
2022-10-14T15:49:35.328Z,74.08
2022-10-14T15:52:03.072Z,74.17
2022-10-14T15:54:30.826Z,73.94
2022-10-14T15:56:58.733Z,73.96
2022-10-14T15:59:26.930Z,74.07
2022-10-14T16:01:54.881Z,73.81
2022-10-14T16:04:25.054Z,73.84
2022-10-14T16:06:56.033Z,73.97
2022-10-14T16:09:25.068Z,73.86
2022-10-14T16:11:57.599Z,73.75
2022-10-14T16:14:25.628Z,73.77
2022-10-14T16:16:53.959Z,73.67
2022-10-14T16:19:21.842Z,73.75
2022-10-14T16:21:50.189Z,73.92
2022-10-14T16:24:21.524Z,73.86
2022-10-14T16:26:50.390Z,73.85
2022-10-14T16:29:19.132Z,73.67
2022-10-14T16:31:49.358Z,73.86
2022-10-14T16:34:17.378Z,74.02
2022-10-14T16:36:45.188Z,73.94
2022-10-14T16:39:13.655Z,73.88
2022-10-14T16:41:43.350Z,73.30
2022-10-14T16:44:24.439Z,73.44
2022-10-14T16:47:10.950Z,73.35
2022-10-14T16:49:39.045Z,73.09
2022-10-14T16:52:07.638Z,73.11
2022-10-14T16:54:35.471Z,73.05
2022-10-14T16:57:05.343Z,73.18
2022-10-14T16:59:33.286Z,73.19
2022-10-14T17:02:02.883Z,73.47
2022-10-14T17:04:30.731Z,73.15
2022-10-14T17:06:59.709Z,73.16
2022-10-14T17:09:27.519Z,73.04
2022-10-14T17:11:55.747Z,73.33
2022-10-14T17:14:24.926Z,73.42
2022-10-14T17:16:53.503Z,73.51
2022-10-14T17:19:21.693Z,73.87
2022-10-14T17:21:49.471Z,74.06
2022-10-14T17:24:17.652Z,74.38
2022-10-14T17:26:45.888Z,74.43
2022-10-14T17:29:13.807Z,74.54
2022-10-14T17:31:42.932Z,74.39
2022-10-14T17:34:11.048Z,74.13
2022-10-14T17:36:40.063Z,74.06
2022-10-14T17:39:07.863Z,74.03
2022-10-14T17:41:35.584Z,73.79
2022-10-14T17:44:04.017Z,73.43
2022-10-14T17:46:32.236Z,73.67
2022-10-14T17:49:04.147Z,73.57
2022-10-14T17:51:32.307Z,73.56
2022-10-14T17:54:02.617Z,73.34
2022-10-14T17:56:32.624Z,73.37
2022-10-14T17:59:02.829Z,73.22
2022-10-14T18:01:37.359Z,73.08
2022-10-14T18:04:12.957Z,73.17
2022-10-14T18:06:41.329Z,72.95
2022-10-14T18:09:10.847Z,73.02
2022-10-14T18:12:07.833Z,72.93
2022-10-14T18:14:31.224Z,72.82
2022-10-14T18:16:59.958Z,72.71
2022-10-14T18:19:29.192Z,72.75
2022-10-14T18:21:57.070Z,72.60
2022-10-14T18:24:25.002Z,72.59
2022-10-14T18:26:53.427Z,72.75
2022-10-14T18:29:21.278Z,72.54
2022-10-14T18:34:25.034Z,72.58
2022-10-14T18:36:54.316Z,72.52
2022-10-14T18:39:22.133Z,72.43
2022-10-14T18:41:50.228Z,72.41
2022-10-14T18:44:18.219Z,72.43
2022-10-14T18:46:47.520Z,72.23
2022-10-14T18:49:15.463Z,72.32
2022-10-14T18:51:43.557Z,72.25
2022-10-14T18:54:15.050Z,72.35
2022-10-14T18:56:46.127Z,72.33
2022-10-14T18:59:16.224Z,72.26
2022-10-14T19:01:45.912Z,72.23
2022-10-14T19:04:15.911Z,72.25
2022-10-14T19:06:44.940Z,72.20
2022-10-14T19:09:14.672Z,72.17
2022-10-14T19:11:43.290Z,72.05
2022-10-14T19:14:11.023Z,72.06
2022-10-14T19:16:40.294Z,72.04
2022-10-14T19:19:11.686Z,71.84
2022-10-14T19:21:40.164Z,72.07
2022-10-14T19:24:08.998Z,71.99
2022-10-14T19:26:40.544Z,72.07
2022-10-14T19:29:11.777Z,72.01
2022-10-14T19:31:40.723Z,71.86
2022-10-14T19:34:11.414Z,71.80
2022-10-14T19:36:41.253Z,71.96
2022-10-14T19:39:11.249Z,71.80
2022-10-14T19:41:43.279Z,71.90
2022-10-14T19:44:12.058Z,71.73
2022-10-14T19:46:40.216Z,71.73
2022-10-14T19:49:08.104Z,71.75
2022-10-14T19:51:36.501Z,71.66
2022-10-14T19:54:04.357Z,71.53
2022-10-14T19:56:32.569Z,71.65
2022-10-14T19:59:01.888Z,71.63
2022-10-14T20:01:30.989Z,71.65
2022-10-14T20:04:01.197Z,71.54
2022-10-14T20:06:31.738Z,71.61
2022-10-14T20:08:59.704Z,71.56
2022-10-14T20:11:28.252Z,71.54
2022-10-14T20:13:55.969Z,71.36
2022-10-14T20:16:25.333Z,71.47
2022-10-14T20:18:53.150Z,71.31
2022-10-14T20:21:20.936Z,71.40
2022-10-14T20:23:48.833Z,71.31
2022-10-14T20:26:18.543Z,71.41
2022-10-14T20:28:46.734Z,71.11
2022-10-14T20:31:16.646Z,71.16
2022-10-14T20:33:46.231Z,71.32
2022-10-14T20:36:15.959Z,71.14
2022-10-14T20:38:44.755Z,71.23
2022-10-14T20:41:15.116Z,71.08
2022-10-14T20:43:43.751Z,71.28
2022-10-14T20:46:11.885Z,71.02
2022-10-14T20:48:39.708Z,71.08
2022-10-14T20:51:11.112Z,70.91
2022-10-14T20:53:38.951Z,71.02
2022-10-14T20:56:09.345Z,71.04
2022-10-14T20:58:37.306Z,70.98
2022-10-14T21:01:06.896Z,70.80
2022-10-14T21:03:34.705Z,70.80
2022-10-14T21:06:04.031Z,70.82
2022-10-14T21:08:33.710Z,70.62
2022-10-14T21:11:02.204Z,70.70
2022-10-14T21:13:30.749Z,70.71
2022-10-14T21:15:58.790Z,70.56
2022-10-14T21:18:27.589Z,70.71
2022-10-14T21:20:55.328Z,70.71
2022-10-14T21:23:23.110Z,70.67
2022-10-14T21:25:57.101Z,70.83
2022-10-14T21:28:25.159Z,70.78
2022-10-14T21:30:52.930Z,70.77
2022-10-14T21:33:20.713Z,70.67
2022-10-14T21:35:48.613Z,70.44
2022-10-14T21:38:16.402Z,70.52
2022-10-14T21:40:44.102Z,70.71
2022-10-14T21:43:13.185Z,70.54
2022-10-14T21:45:41.378Z,70.47
2022-10-14T21:48:09.195Z,70.46
2022-10-14T21:50:36.945Z,70.36
2022-10-14T21:53:04.909Z,70.49
2022-10-14T21:55:32.671Z,70.55
2022-10-14T21:58:00.453Z,70.54
2022-10-14T22:00:29.583Z,70.57
2022-10-14T22:02:57.380Z,70.37
2022-10-14T22:05:25.206Z,70.51
2022-10-14T22:07:52.936Z,70.48
2022-10-14T22:10:34.618Z,70.35
2022-10-14T22:13:02.638Z,70.42
2022-10-14T22:15:31.981Z,70.46
2022-10-14T22:17:59.823Z,70.71
2022-10-14T22:20:27.553Z,70.43
2022-10-14T22:22:55.454Z,70.46
2022-10-14T22:25:23.295Z,70.69
2022-10-14T22:27:51.092Z,70.64
2022-10-14T22:30:19.134Z,70.55
2022-10-14T22:32:48.296Z,70.66
2022-10-14T22:35:16.160Z,70.54
2022-10-14T22:37:43.882Z,70.58
2022-10-14T22:40:12.502Z,70.62
2022-10-14T22:42:42.241Z,70.55
2022-10-14T22:45:11.580Z,70.71
2022-10-14T22:47:39.472Z,70.50
2022-10-14T22:50:09.533Z,70.50
2022-10-14T22:52:38.314Z,70.54
2022-10-14T22:55:07.168Z,70.46
2022-10-14T22:57:35.128Z,70.29
2022-10-14T23:00:03.343Z,70.25
2022-10-14T23:02:31.093Z,70.22
2022-10-14T23:04:59.317Z,70.29
2022-10-14T23:07:29.298Z,70.33
2022-10-14T23:09:57.043Z,70.41
2022-10-14T23:12:25.221Z,70.39
2022-10-14T23:14:53.595Z,70.25
2022-10-14T23:17:21.339Z,70.40
2022-10-14T23:19:49.067Z,70.17
2022-10-14T23:22:16.830Z,70.36
2022-10-14T23:24:45.968Z,70.42
2022-10-14T23:27:13.717Z,70.25
2022-10-14T23:29:41.422Z,70.60
2022-10-14T23:32:09.254Z,70.37
2022-10-14T23:34:37.021Z,70.43
2022-10-14T23:37:04.756Z,70.54
2022-10-14T23:39:32.603Z,70.20
2022-10-14T23:42:01.716Z,70.50
2022-10-14T23:44:29.553Z,70.42
2022-10-14T23:46:57.374Z,70.33
2022-10-14T23:49:26.356Z,70.46
2022-10-14T23:51:55.210Z,70.59
2022-10-14T23:54:22.942Z,70.19
2022-10-14T23:56:50.627Z,70.15
2022-10-14T23:59:19.877Z,70.42
